createdAt,value
2023-01-07T00:00:40.051Z,100324.31
2023-01-07T00:05:44.034Z,100301.44
2023-01-07T00:10:46.601Z,100286.16
2023-01-07T00:15:49.261Z,100305.47
2023-01-07T00:20:51.828Z,100260.84
2023-01-07T00:26:03.235Z,100313.16
2023-01-07T00:31:14.382Z,100312.91
2023-01-07T00:36:17.159Z,100310.25
2023-01-07T00:41:19.703Z,100320.06
2023-01-07T00:46:22.921Z,100324.56
2023-01-07T00:51:25.658Z,100320.72
2023-01-07T00:56:28.233Z,100319.81
2023-01-07T01:01:31.043Z,100312.63
2023-01-07T01:06:33.748Z,100307.44
2023-01-07T01:11:36.426Z,100312.75
2023-01-07T01:16:39.443Z,100301.44
2023-01-07T01:21:42.337Z,100316.38
2023-01-07T01:26:44.991Z,100327.91
2023-01-07T01:31:48.665Z,100335.88
2023-01-07T01:36:51.673Z,100342.16
2023-01-07T01:41:54.510Z,100344.31
2023-01-07T01:46:57.222Z,100332.34
2023-01-07T01:52:13.084Z,100358.31
2023-01-07T01:57:20.686Z,100361.34
2023-01-07T02:02:29.019Z,100376.25
2023-01-07T02:07:32.216Z,100383.53
2023-01-07T02:12:56.751Z,100389.19
2023-01-07T02:18:15.375Z,100398.97
2023-01-07T02:23:44.078Z,100397.63
2023-01-07T02:29:22.684Z,100405.34
2023-01-07T02:34:50.501Z,100397.88
2023-01-07T02:40:05.307Z,100414.56
2023-01-07T02:45:07.862Z,100420.91
2023-01-07T02:50:14.656Z,100376.06
2023-01-07T02:55:22.424Z,100428.72
2023-01-07T03:00:47.116Z,100448.34
2023-01-07T03:06:05.086Z,100448.19
2023-01-07T03:11:10.213Z,100437.44
2023-01-07T03:16:36.618Z,100464.16
2023-01-07T03:21:39.483Z,100462.34
2023-01-07T03:26:48.900Z,100427.63
2023-01-07T03:32:13.413Z,100472.22
2023-01-07T03:37:18.721Z,100429.69
2023-01-07T03:42:42.316Z,100481.75
2023-01-07T03:47:53.304Z,100487.28
2023-01-07T03:52:57.106Z,100490.00
2023-01-07T03:58:00.625Z,100485.88
2023-01-07T04:03:03.418Z,100485.88
2023-01-07T04:08:14.086Z,100487.03
2023-01-07T04:13:17.663Z,100492.38
2023-01-07T04:18:22.837Z,100499.50
2023-01-07T04:23:25.578Z,100502.91
2023-01-07T04:28:30.087Z,100495.75
2023-01-07T04:33:33.240Z,100498.81
2023-01-07T04:38:36.120Z,100464.78
2023-01-07T04:43:40.045Z,100508.53
2023-01-07T04:48:43.759Z,100515.28
2023-01-07T04:53:47.833Z,100503.31
2023-01-07T04:58:50.609Z,100525.59
2023-01-07T05:03:54.146Z,100527.31
2023-01-07T05:08:56.825Z,100538.84
2023-01-07T05:14:00.984Z,100558.94
2023-01-07T05:19:06.912Z,100549.28
2023-01-07T05:24:14.409Z,100557.81
2023-01-07T05:29:17.483Z,100558.00
2023-01-07T05:34:21.705Z,100558.91
2023-01-07T05:39:26.082Z,100580.53
2023-01-07T05:44:29.273Z,100578.44
2023-01-07T05:49:31.923Z,100594.63
2023-01-07T05:54:34.483Z,100594.41
2023-01-07T05:59:37.077Z,100598.59
2023-01-07T06:04:39.800Z,100605.03
2023-01-07T06:09:42.476Z,100615.75
2023-01-07T06:14:45.051Z,100615.88
2023-01-07T06:19:47.979Z,100601.16
2023-01-07T06:24:50.627Z,100623.84
2023-01-07T06:29:54.289Z,100631.56
2023-01-07T06:34:56.906Z,100640.22
2023-01-07T06:39:59.553Z,100652.47
2023-01-07T06:45:02.185Z,100653.78
2023-01-07T06:50:06.272Z,100655.19
2023-01-07T06:55:09.515Z,100665.75
2023-01-07T07:00:12.740Z,100659.81
2023-01-07T07:05:15.704Z,100664.91
2023-01-07T07:10:18.420Z,100673.00
2023-01-07T07:15:21.030Z,100679.38
2023-01-07T07:20:23.808Z,100690.91
2023-01-07T07:25:26.419Z,100699.06
2023-01-07T07:30:45.524Z,100700.94
2023-01-07T07:35:49.701Z,100695.16
2023-01-07T07:40:52.286Z,100729.56
2023-01-07T07:45:54.967Z,100723.34
2023-01-07T07:50:57.768Z,100734.63
2023-01-07T07:56:00.415Z,100694.03
2023-01-07T08:01:03.180Z,100727.66
2023-01-07T08:06:06.462Z,100738.66
2023-01-07T08:11:09.334Z,100747.19
2023-01-07T08:16:12.002Z,100751.75
2023-01-07T08:21:14.876Z,100745.13
2023-01-07T08:26:20.258Z,100739.56
2023-01-07T08:31:23.668Z,100741.25
2023-01-07T08:36:26.724Z,100729.59
2023-01-07T08:41:29.333Z,100748.81
2023-01-07T08:46:34.870Z,100745.75
2023-01-07T08:51:37.695Z,100745.25
2023-01-07T08:56:40.368Z,100755.47
2023-01-07T09:01:43.089Z,100746.38
2023-01-07T09:06:45.839Z,100760.69
2023-01-07T09:11:48.386Z,100750.97
2023-01-07T09:16:50.995Z,100749.41
2023-01-07T09:21:53.583Z,100754.53
2023-01-07T09:26:56.170Z,100763.75
2023-01-07T09:31:58.881Z,100768.69
2023-01-07T09:37:01.559Z,100774.63
2023-01-07T09:42:43.858Z,100768.78
2023-01-07T09:47:50.367Z,100775.97
2023-01-07T09:52:57.562Z,100769.47
2023-01-07T09:58:00.431Z,100759.69
2023-01-07T10:03:30.333Z,100762.56
2023-01-07T10:08:45.858Z,100765.81
2023-01-07T10:14:04.370Z,100762.44
2023-01-07T10:19:06.843Z,100762.38
2023-01-07T10:24:21.951Z,100762.53
2023-01-07T10:29:44.820Z,100747.63
2023-01-07T10:34:50.385Z,100732.41
2023-01-07T10:40:17.885Z,100783.84
2023-01-07T10:45:52.819Z,100787.16
2023-01-07T10:51:34.029Z,100795.53
2023-01-07T10:56:42.442Z,100779.06
2023-01-07T11:01:52.300Z,100791.50
2023-01-07T11:07:07.738Z,100767.56
2023-01-07T11:12:39.002Z,100785.59
2023-01-07T11:18:21.928Z,100790.06
2023-01-07T11:23:38.216Z,100796.22
2023-01-07T11:28:56.076Z,100777.72
2023-01-07T11:34:02.902Z,100785.28
2023-01-07T11:39:22.725Z,100801.72
2023-01-07T11:44:26.916Z,100806.91
2023-01-07T11:49:31.171Z,100799.03
2023-01-07T11:54:33.993Z,100814.09
2023-01-07T11:59:36.545Z,100795.91
2023-01-07T12:04:40.433Z,100818.50
2023-01-07T12:09:45.583Z,100797.69
2023-01-07T12:14:48.859Z,100812.34
2023-01-07T12:20:21.418Z,100794.91
2023-01-07T12:25:24.352Z,100827.84
2023-01-07T12:30:32.773Z,100822.94
2023-01-07T12:35:42.948Z,100818.47
2023-01-07T12:40:51.439Z,100828.69
2023-01-07T12:46:00.974Z,100791.53
2023-01-07T12:51:14.173Z,100843.41
2023-01-07T12:56:27.515Z,100813.09
2023-01-07T13:01:37.108Z,100851.25
2023-01-07T13:07:05.575Z,100857.53
2023-01-07T13:12:45.585Z,100844.41
2023-01-07T13:17:50.534Z,100847.31
2023-01-07T13:22:56.613Z,100856.75
2023-01-07T13:28:14.298Z,100862.00
2023-01-07T13:33:25.236Z,100804.44
2023-01-07T13:38:38.731Z,100860.75
2023-01-07T13:43:59.262Z,100867.06
2023-01-07T13:49:02.025Z,100868.47
2023-01-07T13:54:04.799Z,100856.94
2023-01-07T13:59:31.046Z,100877.44
2023-01-07T14:04:36.936Z,100872.25
2023-01-07T14:09:41.173Z,100878.31
2023-01-07T14:15:23.143Z,100884.50
2023-01-07T14:21:21.411Z,100884.78
2023-01-07T14:26:52.843Z,100884.19
2023-01-07T14:32:29.773Z,100882.88
2023-01-07T14:37:36.963Z,100896.00
2023-01-07T14:42:43.037Z,100896.47
2023-01-07T14:47:45.687Z,100886.47
2023-01-07T14:53:22.423Z,100894.06
2023-01-07T14:58:50.867Z,100897.09
2023-01-07T15:04:02.490Z,100909.75
2023-01-07T15:09:32.498Z,100900.41
2023-01-07T15:14:53.902Z,100869.38
2023-01-07T15:19:58.025Z,100907.75
2023-01-07T15:25:09.214Z,100899.69
2023-01-07T15:30:26.481Z,100906.09
2023-01-07T15:35:34.376Z,100906.97
2023-01-07T15:40:37.546Z,100910.31
2023-01-07T15:45:40.338Z,100909.91
2023-01-07T15:50:46.089Z,100907.63
2023-01-07T15:56:03.183Z,100894.84
2023-01-07T16:01:08.660Z,100910.91
2023-01-07T16:06:36.647Z,100910.31
2023-01-07T16:11:39.556Z,100881.63
2023-01-07T16:16:42.652Z,100892.06
2023-01-07T16:21:58.402Z,100879.53
2023-01-07T16:27:05.430Z,100897.78
2023-01-07T16:32:09.069Z,100912.06
2023-01-07T16:37:15.944Z,100901.13
2023-01-07T16:42:23.663Z,100897.41
2023-01-07T16:47:32.385Z,100865.00
2023-01-07T16:52:35.083Z,100909.56
2023-01-07T16:57:42.682Z,100923.16
2023-01-07T17:02:57.107Z,100922.84
2023-01-07T17:08:05.589Z,100927.88
2023-01-07T17:13:14.674Z,100923.94
2023-01-07T17:18:17.738Z,100921.25
2023-01-07T17:23:26.833Z,100922.38
2023-01-07T17:28:33.181Z,100931.03
2023-01-07T17:33:37.321Z,100934.69
2023-01-07T17:38:40.163Z,100937.94
2023-01-07T17:43:43.288Z,100940.25
2023-01-07T17:48:46.332Z,100928.06
2023-01-07T17:53:51.141Z,100947.19
2023-01-07T17:58:55.955Z,100936.56
2023-01-07T18:03:59.375Z,100902.44
2023-01-07T18:09:05.169Z,100938.78
2023-01-07T18:14:15.713Z,100931.91
2023-01-07T18:19:20.029Z,100941.09
2023-01-07T18:24:22.956Z,100937.13
2023-01-07T18:29:26.152Z,100941.66
2023-01-07T18:34:29.364Z,100937.75
2023-01-07T18:39:32.254Z,100928.97
2023-01-07T18:44:35.502Z,100933.19
2023-01-07T18:49:38.609Z,100928.16
2023-01-07T18:54:41.713Z,100934.47
2023-01-07T18:59:44.758Z,100906.84
2023-01-07T19:04:49.051Z,100934.88
2023-01-07T19:09:53.227Z,100923.28
2023-01-07T19:14:56.716Z,100936.81
2023-01-07T19:19:59.839Z,100923.44
2023-01-07T19:25:02.938Z,100931.13
2023-01-07T19:30:07.523Z,100930.41
2023-01-07T19:35:10.681Z,100926.09
2023-01-07T19:40:13.995Z,100928.31
2023-01-07T19:45:16.823Z,100903.19
2023-01-07T19:50:19.716Z,100929.25
2023-01-07T19:55:24.651Z,100947.47
2023-01-07T20:00:27.432Z,100946.31
2023-01-07T20:05:30.680Z,100956.97
2023-01-07T20:10:35.624Z,100929.84
2023-01-07T20:15:38.516Z,100953.00
2023-01-07T20:20:41.644Z,100958.75
2023-01-07T20:25:48.279Z,100957.94
2023-01-07T20:30:51.374Z,100952.53
2023-01-07T20:36:06.700Z,100962.75
2023-01-07T20:41:13.159Z,100961.88
2023-01-07T20:46:16.114Z,100955.56
2023-01-07T20:51:19.384Z,100957.44
2023-01-07T20:56:24.420Z,100916.44
2023-01-07T21:01:27.588Z,100953.22
2023-01-07T21:06:31.011Z,100930.34
2023-01-07T21:11:34.021Z,100939.50
2023-01-07T21:16:37.632Z,100933.78
2023-01-07T21:21:40.718Z,100939.50
2023-01-07T21:26:44.525Z,100936.06
2023-01-07T21:31:47.440Z,100945.91
2023-01-07T21:36:53.062Z,100933.09
2023-01-07T21:41:55.724Z,100931.44
2023-01-07T21:46:58.263Z,100922.84
2023-01-07T21:52:00.891Z,100933.50
2023-01-07T21:57:03.695Z,100921.28
2023-01-07T22:02:06.477Z,100930.81
2023-01-07T22:07:19.460Z,100932.25
2023-01-07T22:12:23.452Z,100888.69
2023-01-07T22:17:26.840Z,100922.59
2023-01-07T22:22:29.427Z,100927.06
2023-01-07T22:27:32.113Z,100930.44
2023-01-07T22:32:34.731Z,100926.91
2023-01-07T22:37:37.422Z,100919.28
2023-01-07T22:42:55.893Z,100936.16
2023-01-07T22:47:58.702Z,100900.34
2023-01-07T22:53:01.430Z,100937.66
2023-01-07T22:58:04.961Z,100938.72
2023-01-07T23:03:07.595Z,100939.91
2023-01-07T23:08:10.956Z,100927.66
2023-01-07T23:13:13.530Z,100928.34
2023-01-07T23:18:16.957Z,100917.53
2023-01-07T23:23:19.592Z,100939.63
2023-01-07T23:28:22.177Z,100939.31
2023-01-07T23:33:24.705Z,100941.09
2023-01-07T23:38:27.409Z,100933.88
2023-01-07T23:43:30.974Z,100941.69
2023-01-07T23:48:35.260Z,100938.25
2023-01-07T23:53:38.439Z,100943.34
2023-01-07T23:58:41.162Z,100941.19
